sensor_id;sensor_type;location;lat;lon;timestamp;P1;durP1;ratioP1;P2;durP2;ratioP2
45356;SDS011;31092;51.924;21.448;2024-01-10T00:01:50;9.82;;;2.30;;
45356;SDS011;31092;51.924;21.448;2024-01-10T00:04:16;14.48;;;3.80;;
45356;SDS011;31092;51.924;21.448;2024-01-10T00:06:42;7.43;;;3.30;;
45356;SDS011;31092;51.924;21.448;2024-01-10T00:09:08;2.80;;;2.13;;
45356;SDS011;31092;51.924;21.448;2024-01-10T00:11:33;10.65;;;3.33;;
45356;SDS011;31092;51.924;21.448;2024-01-10T00:13:59;16.33;;;4.95;;
45356;SDS011;31092;51.924;21.448;2024-01-10T00:16:27;10.23;;;3.60;;
45356;SDS011;31092;51.924;21.448;2024-01-10T00:18:52;5.07;;;2.38;;
45356;SDS011;31092;51.924;21.448;2024-01-10T00:21:18;2.10;;;1.75;;
45356;SDS011;31092;51.924;21.448;2024-01-10T00:23:43;8.13;;;2.95;;
45356;SDS011;31092;51.924;21.448;2024-01-10T00:26:09;11.35;;;3.60;;
45356;SDS011;31092;51.924;21.448;2024-01-10T00:28:34;7.15;;;2.72;;
45356;SDS011;31092;51.924;21.448;2024-01-10T00:31:00;13.88;;;3.92;;
45356;SDS011;31092;51.924;21.448;2024-01-10T00:33:25;3.85;;;2.67;;
45356;SDS011;31092;51.924;21.448;2024-01-10T00:35:51;7.40;;;2.58;;
45356;SDS011;31092;51.924;21.448;2024-01-10T00:38:16;8.02;;;3.20;;
45356;SDS011;31092;51.924;21.448;2024-01-10T00:40:42;8.13;;;2.30;;
45356;SDS011;31092;51.924;21.448;2024-01-10T00:43:07;8.98;;;2.65;;
45356;SDS011;31092;51.924;21.448;2024-01-10T00:45:33;7.28;;;2.78;;
45356;SDS011;31092;51.924;21.448;2024-01-10T00:47:58;5.80;;;2.58;;
45356;SDS011;31092;51.924;21.448;2024-01-10T00:50:24;12.70;;;2.83;;
45356;SDS011;31092;51.924;21.448;2024-01-10T00:52:49;10.18;;;2.22;;
45356;SDS011;31092;51.924;21.448;2024-01-10T00:55:15;6.45;;;2.65;;
45356;SDS011;31092;51.924;21.448;2024-01-10T00:57:40;8.15;;;3.20;;
45356;SDS011;31092;51.924;21.448;2024-01-10T01:00:06;9.05;;;2.95;;
45356;SDS011;31092;51.924;21.448;2024-01-10T01:02:34;10.57;;;3.08;;
45356;SDS011;31092;51.924;21.448;2024-01-10T01:04:59;6.00;;;2.17;;
45356;SDS011;31092;51.924;21.448;2024-01-10T01:07:25;7.13;;;3.38;;
45356;SDS011;31092;51.924;21.448;2024-01-10T01:09:51;10.63;;;2.58;;
45356;SDS011;31092;51.924;21.448;2024-01-10T01:12:17;2.60;;;2.30;;
45356;SDS011;31092;51.924;21.448;2024-01-10T01:14:42;3.33;;;2.33;;
45356;SDS011;31092;51.924;21.448;2024-01-10T01:17:08;2.70;;;2.10;;
45356;SDS011;31092;51.924;21.448;2024-01-10T01:19:34;7.88;;;2.47;;
45356;SDS011;31092;51.924;21.448;2024-01-10T01:21:59;4.45;;;2.90;;
45356;SDS011;31092;51.924;21.448;2024-01-10T01:24:24;7.32;;;2.85;;
45356;SDS011;31092;51.924;21.448;2024-01-10T01:26:50;5.82;;;2.67;;
45356;SDS011;31092;51.924;21.448;2024-01-10T01:29:16;4.20;;;3.30;;
45356;SDS011;31092;51.924;21.448;2024-01-10T01:31:41;7.90;;;2.38;;
45356;SDS011;31092;51.924;21.448;2024-01-10T01:34:06;2.38;;;2.17;;
45356;SDS011;31092;51.924;21.448;2024-01-10T01:36:32;6.00;;;1.95;;
45356;SDS011;31092;51.924;21.448;2024-01-10T01:38:58;11.80;;;2.90;;
45356;SDS011;31092;51.924;21.448;2024-01-10T01:41:23;8.63;;;4.03;;
45356;SDS011;31092;51.924;21.448;2024-01-10T01:43:48;7.00;;;2.92;;
45356;SDS011;31092;51.924;21.448;2024-01-10T01:46:14;5.95;;;2.45;;
45356;SDS011;31092;51.924;21.448;2024-01-10T01:48:40;5.25;;;2.70;;
45356;SDS011;31092;51.924;21.448;2024-01-10T01:51:07;10.25;;;2.80;;
45356;SDS011;31092;51.924;21.448;2024-01-10T01:53:34;3.88;;;3.22;;
45356;SDS011;31092;51.924;21.448;2024-01-10T01:56:02;6.45;;;3.30;;
45356;SDS011;31092;51.924;21.448;2024-01-10T01:58:30;9.20;;;2.50;;
45356;SDS011;31092;51.924;21.448;2024-01-10T02:00:56;5.60;;;2.67;;
45356;SDS011;31092;51.924;21.448;2024-01-10T02:03:23;14.50;;;4.07;;
45356;SDS011;31092;51.924;21.448;2024-01-10T02:05:49;8.15;;;3.70;;
45356;SDS011;31092;51.924;21.448;2024-01-10T02:08:15;6.45;;;2.63;;
45356;SDS011;31092;51.924;21.448;2024-01-10T02:10:41;3.17;;;2.05;;
45356;SDS011;31092;51.924;21.448;2024-01-10T02:13:06;5.35;;;2.38;;
45356;SDS011;31092;51.924;21.448;2024-01-10T02:15:34;8.23;;;2.45;;
45356;SDS011;31092;51.924;21.448;2024-01-10T02:18:02;4.13;;;3.17;;
45356;SDS011;31092;51.924;21.448;2024-01-10T02:20:27;3.60;;;1.80;;
45356;SDS011;31092;51.924;21.448;2024-01-10T02:22:53;8.02;;;2.95;;
45356;SDS011;31092;51.924;21.448;2024-01-10T02:25:18;5.03;;;2.90;;
45356;SDS011;31092;51.924;21.448;2024-01-10T02:27:44;9.68;;;4.32;;
45356;SDS011;31092;51.924;21.448;2024-01-10T02:30:09;7.60;;;2.70;;
45356;SDS011;31092;51.924;21.448;2024-01-10T02:32:36;2.85;;;2.47;;
45356;SDS011;31092;51.924;21.448;2024-01-10T02:35:02;16.15;;;4.28;;
45356;SDS011;31092;51.924;21.448;2024-01-10T02:37:29;2.67;;;2.00;;
45356;SDS011;31092;51.924;21.448;2024-01-10T02:39:55;7.80;;;3.75;;
45356;SDS011;31092;51.924;21.448;2024-01-10T02:42:20;9.93;;;3.58;;
45356;SDS011;31092;51.924;21.448;2024-01-10T02:44:46;11.20;;;2.85;;
45356;SDS011;31092;51.924;21.448;2024-01-10T02:47:12;7.72;;;2.33;;
45356;SDS011;31092;51.924;21.448;2024-01-10T02:49:38;2.35;;;1.95;;
45356;SDS011;31092;51.924;21.448;2024-01-10T02:52:03;5.07;;;2.53;;
45356;SDS011;31092;51.924;21.448;2024-01-10T02:54:29;10.50;;;3.10;;
45356;SDS011;31092;51.924;21.448;2024-01-10T02:56:54;22.40;;;3.13;;
45356;SDS011;31092;51.924;21.448;2024-01-10T02:59:20;11.38;;;2.55;;
45356;SDS011;31092;51.924;21.448;2024-01-10T03:01:45;3.53;;;2.33;;
45356;SDS011;31092;51.924;21.448;2024-01-10T03:04:11;10.85;;;2.95;;
45356;SDS011;31092;51.924;21.448;2024-01-10T03:06:37;4.38;;;2.95;;
45356;SDS011;31092;51.924;21.448;2024-01-10T03:09:02;10.20;;;3.67;;
45356;SDS011;31092;51.924;21.448;2024-01-10T03:11:28;12.52;;;3.00;;
45356;SDS011;31092;51.924;21.448;2024-01-10T03:14:03;8.95;;;3.35;;
45356;SDS011;31092;51.924;21.448;2024-01-10T03:16:39;18.33;;;3.67;;
45356;SDS011;31092;51.924;21.448;2024-01-10T03:19:05;3.95;;;2.25;;
45356;SDS011;31092;51.924;21.448;2024-01-10T03:21:30;6.95;;;2.85;;
45356;SDS011;31092;51.924;21.448;2024-01-10T03:23:56;18.48;;;3.20;;
45356;SDS011;31092;51.924;21.448;2024-01-10T03:26:23;6.18;;;2.38;;
45356;SDS011;31092;51.924;21.448;2024-01-10T03:28:49;5.97;;;2.30;;
45356;SDS011;31092;51.924;21.448;2024-01-10T03:31:15;6.55;;;3.20;;
45356;SDS011;31092;51.924;21.448;2024-01-10T03:33:41;4.35;;;2.55;;
45356;SDS011;31092;51.924;21.448;2024-01-10T03:36:09;9.40;;;2.17;;
45356;SDS011;31092;51.924;21.448;2024-01-10T03:38:36;5.32;;;2.28;;
45356;SDS011;31092;51.924;21.448;2024-01-10T03:41:02;5.00;;;3.20;;
45356;SDS011;31092;51.924;21.448;2024-01-10T03:43:27;10.95;;;2.30;;
45356;SDS011;31092;51.924;21.448;2024-01-10T03:45:53;3.10;;;2.10;;
45356;SDS011;31092;51.924;21.448;2024-01-10T03:48:18;6.93;;;3.22;;
45356;SDS011;31092;51.924;21.448;2024-01-10T03:50:44;4.13;;;2.80;;
45356;SDS011;31092;51.924;21.448;2024-01-10T03:53:09;4.32;;;2.67;;
45356;SDS011;31092;51.924;21.448;2024-01-10T03:55:35;8.85;;;2.58;;
45356;SDS011;31092;51.924;21.448;2024-01-10T03:58:01;9.57;;;2.83;;
45356;SDS011;31092;51.924;21.448;2024-01-10T04:00:26;7.15;;;2.65;;
45356;SDS011;31092;51.924;21.448;2024-01-10T04:02:53;1.83;;;1.70;;
45356;SDS011;31092;51.924;21.448;2024-01-10T04:05:18;9.45;;;2.35;;
45356;SDS011;31092;51.924;21.448;2024-01-10T04:07:45;5.75;;;2.55;;
45356;SDS011;31092;51.924;21.448;2024-01-10T04:10:11;7.80;;;2.55;;
45356;SDS011;31092;51.924;21.448;2024-01-10T04:12:41;5.40;;;2.40;;
45356;SDS011;31092;51.924;21.448;2024-01-10T04:15:07;5.70;;;2.00;;
45356;SDS011;31092;51.924;21.448;2024-01-10T04:17:33;4.78;;;2.50;;
45356;SDS011;31092;51.924;21.448;2024-01-10T04:19:59;4.72;;;1.73;;
45356;SDS011;31092;51.924;21.448;2024-01-10T04:22:24;5.85;;;3.40;;
45356;SDS011;31092;51.924;21.448;2024-01-10T04:24:50;7.07;;;2.38;;
45356;SDS011;31092;51.924;21.448;2024-01-10T04:27:16;2.30;;;1.90;;
45356;SDS011;31092;51.924;21.448;2024-01-10T04:29:43;5.05;;;2.45;;
45356;SDS011;31092;51.924;21.448;2024-01-10T04:32:09;4.00;;;2.63;;
45356;SDS011;31092;51.924;21.448;2024-01-10T04:34:34;7.97;;;2.63;;
45356;SDS011;31092;51.924;21.448;2024-01-10T04:37:00;4.35;;;1.83;;
45356;SDS011;31092;51.924;21.448;2024-01-10T04:39:25;9.45;;;2.70;;
45356;SDS011;31092;51.924;21.448;2024-01-10T04:41:51;5.95;;;2.95;;
45356;SDS011;31092;51.924;21.448;2024-01-10T04:44:16;11.27;;;3.45;;
45356;SDS011;31092;51.924;21.448;2024-01-10T04:46:42;10.20;;;2.25;;
45356;SDS011;31092;51.924;21.448;2024-01-10T04:49:08;9.30;;;2.92;;
45356;SDS011;31092;51.924;21.448;2024-01-10T04:51:33;13.80;;;2.53;;
45356;SDS011;31092;51.924;21.448;2024-01-10T04:53:59;15.00;;;2.35;;
45356;SDS011;31092;51.924;21.448;2024-01-10T04:56:25;8.80;;;3.15;;
45356;SDS011;31092;51.924;21.448;2024-01-10T04:58:51;3.80;;;3.03;;
45356;SDS011;31092;51.924;21.448;2024-01-10T05:01:17;4.30;;;2.17;;
45356;SDS011;31092;51.924;21.448;2024-01-10T05:03:42;8.65;;;2.67;;
45356;SDS011;31092;51.924;21.448;2024-01-10T05:06:08;7.18;;;1.73;;
45356;SDS011;31092;51.924;21.448;2024-01-10T05:08:33;6.03;;;2.85;;
45356;SDS011;31092;51.924;21.448;2024-01-10T05:10:59;17.50;;;3.35;;
45356;SDS011;31092;51.924;21.448;2024-01-10T05:13:24;6.57;;;2.55;;
45356;SDS011;31092;51.924;21.448;2024-01-10T05:15:50;6.47;;;3.00;;
45356;SDS011;31092;51.924;21.448;2024-01-10T05:18:16;2.75;;;2.15;;
45356;SDS011;31092;51.924;21.448;2024-01-10T05:20:42;10.75;;;3.42;;
45356;SDS011;31092;51.924;21.448;2024-01-10T05:23:07;8.32;;;2.78;;
45356;SDS011;31092;51.924;21.448;2024-01-10T05:25:33;5.18;;;2.60;;
45356;SDS011;31092;51.924;21.448;2024-01-10T05:27:59;4.40;;;3.17;;
45356;SDS011;31092;51.924;21.448;2024-01-10T05:30:24;7.32;;;2.67;;
45356;SDS011;31092;51.924;21.448;2024-01-10T05:32:50;7.25;;;3.45;;
45356;SDS011;31092;51.924;21.448;2024-01-10T05:35:16;6.53;;;2.90;;
45356;SDS011;31092;51.924;21.448;2024-01-10T05:37:41;11.45;;;2.50;;
45356;SDS011;31092;51.924;21.448;2024-01-10T05:40:07;3.38;;;2.22;;
45356;SDS011;31092;51.924;21.448;2024-01-10T05:42:33;7.15;;;3.17;;
45356;SDS011;31092;51.924;21.448;2024-01-10T05:45:01;5.40;;;2.65;;
45356;SDS011;31092;51.924;21.448;2024-01-10T05:47:27;3.10;;;1.48;;
45356;SDS011;31092;51.924;21.448;2024-01-10T05:49:53;6.03;;;2.28;;
45356;SDS011;31092;51.924;21.448;2024-01-10T05:52:19;8.48;;;2.53;;
45356;SDS011;31092;51.924;21.448;2024-01-10T05:54:45;5.07;;;4.25;;
45356;SDS011;31092;51.924;21.448;2024-01-10T05:57:10;7.00;;;2.15;;
45356;SDS011;31092;51.924;21.448;2024-01-10T05:59:36;3.53;;;2.33;;
45356;SDS011;31092;51.924;21.448;2024-01-10T06:02:02;2.30;;;1.80;;
45356;SDS011;31092;51.924;21.448;2024-01-10T06:04:28;7.93;;;2.83;;
45356;SDS011;31092;51.924;21.448;2024-01-10T06:06:57;5.22;;;3.33;;
45356;SDS011;31092;51.924;21.448;2024-01-10T06:09:23;5.75;;;2.90;;
45356;SDS011;31092;51.924;21.448;2024-01-10T06:11:49;7.45;;;2.70;;
45356;SDS011;31092;51.924;21.448;2024-01-10T06:14:14;3.80;;;1.95;;
45356;SDS011;31092;51.924;21.448;2024-01-10T06:16:40;8.57;;;4.22;;
45356;SDS011;31092;51.924;21.448;2024-01-10T06:19:05;5.32;;;2.72;;
45356;SDS011;31092;51.924;21.448;2024-01-10T06:21:31;7.68;;;2.30;;
45356;SDS011;31092;51.924;21.448;2024-01-10T06:23:57;6.45;;;3.65;;
45356;SDS011;31092;51.924;21.448;2024-01-10T06:26:22;8.68;;;3.80;;
45356;SDS011;31092;51.924;21.448;2024-01-10T06:28:48;6.15;;;3.63;;
45356;SDS011;31092;51.924;21.448;2024-01-10T06:31:13;5.82;;;1.75;;
45356;SDS011;31092;51.924;21.448;2024-01-10T06:33:39;4.70;;;2.45;;
45356;SDS011;31092;51.924;21.448;2024-01-10T06:36:04;7.35;;;2.85;;
45356;SDS011;31092;51.924;21.448;2024-01-10T06:38:30;5.28;;;1.73;;
45356;SDS011;31092;51.924;21.448;2024-01-10T06:40:56;6.10;;;3.30;;
45356;SDS011;31092;51.924;21.448;2024-01-10T06:43:21;3.88;;;2.13;;
45356;SDS011;31092;51.924;21.448;2024-01-10T06:45:47;3.53;;;2.25;;
45356;SDS011;31092;51.924;21.448;2024-01-10T06:48:13;3.97;;;2.72;;
45356;SDS011;31092;51.924;21.448;2024-01-10T06:50:39;6.43;;;2.97;;
45356;SDS011;31092;51.924;21.448;2024-01-10T06:53:05;7.75;;;2.72;;
45356;SDS011;31092;51.924;21.448;2024-01-10T06:55:30;9.95;;;3.40;;
45356;SDS011;31092;51.924;21.448;2024-01-10T06:57:56;4.32;;;3.28;;
45356;SDS011;31092;51.924;21.448;2024-01-10T07:00:22;4.85;;;3.53;;
45356;SDS011;31092;51.924;21.448;2024-01-10T07:02:47;9.90;;;3.88;;
45356;SDS011;31092;51.924;21.448;2024-01-10T07:05:15;9.10;;;4.28;;
45356;SDS011;31092;51.924;21.448;2024-01-10T07:07:41;3.88;;;1.98;;
45356;SDS011;31092;51.924;21.448;2024-01-10T07:10:07;7.28;;;3.53;;
45356;SDS011;31092;51.924;21.448;2024-01-10T07:12:33;18.48;;;3.00;;
45356;SDS011;31092;51.924;21.448;2024-01-10T07:14:59;13.98;;;5.00;;
45356;SDS011;31092;51.924;21.448;2024-01-10T07:17:25;14.98;;;4.95;;
45356;SDS011;31092;51.924;21.448;2024-01-10T07:19:50;5.22;;;3.20;;
45356;SDS011;31092;51.924;21.448;2024-01-10T07:22:16;8.48;;;3.10;;
45356;SDS011;31092;51.924;21.448;2024-01-10T07:24:43;11.80;;;5.65;;
45356;SDS011;31092;51.924;21.448;2024-01-10T07:27:08;8.10;;;3.88;;
45356;SDS011;31092;51.924;21.448;2024-01-10T07:29:34;13.60;;;5.72;;
45356;SDS011;31092;51.924;21.448;2024-01-10T07:32:00;13.15;;;5.35;;
45356;SDS011;31092;51.924;21.448;2024-01-10T07:34:26;16.77;;;7.05;;
45356;SDS011;31092;51.924;21.448;2024-01-10T07:36:51;20.70;;;8.30;;
45356;SDS011;31092;51.924;21.448;2024-01-10T07:39:19;26.55;;;7.57;;
45356;SDS011;31092;51.924;21.448;2024-01-10T07:41:45;26.33;;;10.25;;
45356;SDS011;31092;51.924;21.448;2024-01-10T07:44:11;41.38;;;12.80;;
45356;SDS011;31092;51.924;21.448;2024-01-10T07:46:37;54.55;;;22.02;;
45356;SDS011;31092;51.924;21.448;2024-01-10T07:49:05;43.58;;;17.00;;
45356;SDS011;31092;51.924;21.448;2024-01-10T07:51:31;49.67;;;17.92;;
45356;SDS011;31092;51.924;21.448;2024-01-10T07:53:57;26.98;;;13.35;;
45356;SDS011;31092;51.924;21.448;2024-01-10T07:56:24;37.88;;;14.73;;
45356;SDS011;31092;51.924;21.448;2024-01-10T07:58:49;49.75;;;18.08;;
45356;SDS011;31092;51.924;21.448;2024-01-10T08:01:17;32.33;;;11.35;;
45356;SDS011;31092;51.924;21.448;2024-01-10T08:03:43;34.70;;;14.48;;
45356;SDS011;31092;51.924;21.448;2024-01-10T08:06:08;18.38;;;9.98;;
45356;SDS011;31092;51.924;21.448;2024-01-10T08:08:35;37.72;;;15.20;;
45356;SDS011;31092;51.924;21.448;2024-01-10T08:11:01;34.45;;;13.55;;
45356;SDS011;31092;51.924;21.448;2024-01-10T08:13:27;22.23;;;10.32;;
45356;SDS011;31092;51.924;21.448;2024-01-10T08:15:53;42.92;;;14.00;;
45356;SDS011;31092;51.924;21.448;2024-01-10T08:18:19;31.48;;;11.13;;
45356;SDS011;31092;51.924;21.448;2024-01-10T08:20:44;31.63;;;13.30;;
45356;SDS011;31092;51.924;21.448;2024-01-10T08:23:10;34.65;;;13.85;;
45356;SDS011;31092;51.924;21.448;2024-01-10T08:25:36;31.83;;;12.45;;
45356;SDS011;31092;51.924;21.448;2024-01-10T08:28:01;23.30;;;10.50;;
45356;SDS011;31092;51.924;21.448;2024-01-10T08:30:27;28.13;;;10.25;;
45356;SDS011;31092;51.924;21.448;2024-01-10T08:32:53;20.83;;;10.13;;
45356;SDS011;31092;51.924;21.448;2024-01-10T08:35:18;26.95;;;10.35;;
45356;SDS011;31092;51.924;21.448;2024-01-10T08:37:44;28.08;;;11.32;;
45356;SDS011;31092;51.924;21.448;2024-01-10T08:40:11;29.45;;;9.23;;
45356;SDS011;31092;51.924;21.448;2024-01-10T08:42:39;37.25;;;14.23;;
45356;SDS011;31092;51.924;21.448;2024-01-10T08:45:06;26.13;;;10.75;;
45356;SDS011;31092;51.924;21.448;2024-01-10T08:47:34;31.10;;;10.80;;
45356;SDS011;31092;51.924;21.448;2024-01-10T08:50:00;24.08;;;10.73;;
45356;SDS011;31092;51.924;21.448;2024-01-10T08:52:27;21.95;;;9.38;;
45356;SDS011;31092;51.924;21.448;2024-01-10T08:54:52;15.00;;;8.60;;
45356;SDS011;31092;51.924;21.448;2024-01-10T08:57:18;27.88;;;9.02;;
45356;SDS011;31092;51.924;21.448;2024-01-10T08:59:43;33.28;;;11.43;;
45356;SDS011;31092;51.924;21.448;2024-01-10T09:02:09;35.80;;;14.10;;
45356;SDS011;31092;51.924;21.448;2024-01-10T09:04:35;25.75;;;13.00;;
45356;SDS011;31092;51.924;21.448;2024-01-10T09:07:01;26.27;;;12.65;;
45356;SDS011;31092;51.924;21.448;2024-01-10T09:09:26;33.78;;;13.90;;
45356;SDS011;31092;51.924;21.448;2024-01-10T09:11:52;35.22;;;13.43;;
45356;SDS011;31092;51.924;21.448;2024-01-10T09:14:18;29.70;;;12.98;;
45356;SDS011;31092;51.924;21.448;2024-01-10T09:16:44;30.33;;;12.15;;
45356;SDS011;31092;51.924;21.448;2024-01-10T09:19:10;33.25;;;13.90;;
45356;SDS011;31092;51.924;21.448;2024-01-10T09:21:35;37.67;;;14.73;;
45356;SDS011;31092;51.924;21.448;2024-01-10T09:24:01;41.97;;;14.02;;
45356;SDS011;31092;51.924;21.448;2024-01-10T09:26:30;34.72;;;12.40;;
45356;SDS011;31092;51.924;21.448;2024-01-10T09:28:56;28.33;;;12.60;;
45356;SDS011;31092;51.924;21.448;2024-01-10T09:31:21;36.67;;;14.25;;
45356;SDS011;31092;51.924;21.448;2024-01-10T09:33:47;23.58;;;9.57;;
45356;SDS011;31092;51.924;21.448;2024-01-10T09:36:12;34.70;;;13.77;;
45356;SDS011;31092;51.924;21.448;2024-01-10T09:38:38;25.83;;;11.43;;
45356;SDS011;31092;51.924;21.448;2024-01-10T09:41:04;34.83;;;13.00;;
45356;SDS011;31092;51.924;21.448;2024-01-10T09:43:30;38.95;;;14.40;;
45356;SDS011;31092;51.924;21.448;2024-01-10T09:45:57;40.28;;;14.48;;
45356;SDS011;31092;51.924;21.448;2024-01-10T09:48:24;43.38;;;14.57;;
45356;SDS011;31092;51.924;21.448;2024-01-10T09:50:50;29.90;;;13.98;;
45356;SDS011;31092;51.924;21.448;2024-01-10T09:53:23;31.08;;;12.05;;
45356;SDS011;31092;51.924;21.448;2024-01-10T09:55:52;33.67;;;13.20;;
45356;SDS011;31092;51.924;21.448;2024-01-10T09:58:22;23.40;;;10.35;;
45356;SDS011;31092;51.924;21.448;2024-01-10T10:00:48;32.25;;;12.35;;
45356;SDS011;31092;51.924;21.448;2024-01-10T10:03:13;28.83;;;13.68;;
45356;SDS011;31092;51.924;21.448;2024-01-10T10:05:42;22.05;;;10.40;;
45356;SDS011;31092;51.924;21.448;2024-01-10T10:08:10;14.48;;;6.88;;
45356;SDS011;31092;51.924;21.448;2024-01-10T10:10:36;26.48;;;9.10;;
45356;SDS011;31092;51.924;21.448;2024-01-10T10:13:08;24.98;;;11.98;;
45356;SDS011;31092;51.924;21.448;2024-01-10T10:15:36;26.30;;;12.45;;
45356;SDS011;31092;51.924;21.448;2024-01-10T10:18:02;29.23;;;11.57;;
45356;SDS011;31092;51.924;21.448;2024-01-10T10:20:29;26.95;;;12.13;;
45356;SDS011;31092;51.924;21.448;2024-01-10T10:23:06;31.80;;;10.48;;
45356;SDS011;31092;51.924;21.448;2024-01-10T10:28:11;24.00;;;9.98;;
45356;SDS011;31092;51.924;21.448;2024-01-10T10:30:36;25.67;;;12.40;;
45356;SDS011;31092;51.924;21.448;2024-01-10T10:33:02;25.60;;;12.20;;
45356;SDS011;31092;51.924;21.448;2024-01-10T10:35:28;36.70;;;12.00;;
45356;SDS011;31092;51.924;21.448;2024-01-10T10:37:54;27.65;;;11.90;;
45356;SDS011;31092;51.924;21.448;2024-01-10T10:40:20;30.27;;;11.60;;
45356;SDS011;31092;51.924;21.448;2024-01-10T10:42:46;24.35;;;9.07;;
45356;SDS011;31092;51.924;21.448;2024-01-10T10:45:14;14.70;;;6.82;;
45356;SDS011;31092;51.924;21.448;2024-01-10T10:47:45;20.75;;;8.43;;
45356;SDS011;31092;51.924;21.448;2024-01-10T10:50:21;24.83;;;9.07;;
45356;SDS011;31092;51.924;21.448;2024-01-10T10:52:48;31.02;;;10.55;;
45356;SDS011;31092;51.924;21.448;2024-01-10T10:55:15;24.52;;;9.57;;
45356;SDS011;31092;51.924;21.448;2024-01-10T10:57:45;25.83;;;8.25;;
45356;SDS011;31092;51.924;21.448;2024-01-10T11:00:13;18.88;;;6.35;;
45356;SDS011;31092;51.924;21.448;2024-01-10T11:02:42;17.00;;;7.07;;
45356;SDS011;31092;51.924;21.448;2024-01-10T11:05:10;25.45;;;10.15;;
45356;SDS011;31092;51.924;21.448;2024-01-10T11:07:40;20.02;;;9.07;;
45356;SDS011;31092;51.924;21.448;2024-01-10T11:10:11;21.17;;;9.00;;
45356;SDS011;31092;51.924;21.448;2024-01-10T11:15:35;25.77;;;8.98;;
45356;SDS011;31092;51.924;21.448;2024-01-10T11:23:50;24.13;;;9.18;;
45356;SDS011;31092;51.924;21.448;2024-01-10T11:26:20;18.03;;;8.60;;
45356;SDS011;31092;51.924;21.448;2024-01-10T11:28:45;19.17;;;7.75;;
45356;SDS011;31092;51.924;21.448;2024-01-10T11:31:12;17.95;;;9.10;;
45356;SDS011;31092;51.924;21.448;2024-01-10T11:33:39;24.02;;;8.35;;
45356;SDS011;31092;51.924;21.448;2024-01-10T11:36:16;20.42;;;8.77;;
45356;SDS011;31092;51.924;21.448;2024-01-10T11:38:49;21.83;;;8.40;;
45356;SDS011;31092;51.924;21.448;2024-01-10T11:46:37;11.82;;;4.60;;
45356;SDS011;31092;51.924;21.448;2024-01-10T11:49:07;12.38;;;5.43;;
45356;SDS011;31092;51.924;21.448;2024-01-10T11:51:37;17.85;;;7.93;;
45356;SDS011;31092;51.924;21.448;2024-01-10T11:54:03;20.88;;;8.38;;
45356;SDS011;31092;51.924;21.448;2024-01-10T11:56:38;19.17;;;7.20;;
45356;SDS011;31092;51.924;21.448;2024-01-10T11:59:14;22.58;;;9.32;;
45356;SDS011;31092;51.924;21.448;2024-01-10T12:01:42;20.10;;;7.15;;
45356;SDS011;31092;51.924;21.448;2024-01-10T12:04:07;22.35;;;7.45;;
45356;SDS011;31092;51.924;21.448;2024-01-10T12:06:36;17.73;;;7.53;;
45356;SDS011;31092;51.924;21.448;2024-01-10T12:09:03;16.38;;;7.80;;
45356;SDS011;31092;51.924;21.448;2024-01-10T12:11:35;16.17;;;7.50;;
45356;SDS011;31092;51.924;21.448;2024-01-10T12:14:01;16.65;;;7.25;;
45356;SDS011;31092;51.924;21.448;2024-01-10T12:16:27;21.27;;;8.38;;
45356;SDS011;31092;51.924;21.448;2024-01-10T12:18:54;20.42;;;7.88;;
45356;SDS011;31092;51.924;21.448;2024-01-10T12:21:27;20.63;;;7.88;;
45356;SDS011;31092;51.924;21.448;2024-01-10T12:24:03;21.08;;;8.90;;
45356;SDS011;31092;51.924;21.448;2024-01-10T12:26:30;20.15;;;7.72;;
45356;SDS011;31092;51.924;21.448;2024-01-10T12:28:57;16.83;;;8.35;;
45356;SDS011;31092;51.924;21.448;2024-01-10T12:31:24;22.98;;;8.07;;
45356;SDS011;31092;51.924;21.448;2024-01-10T12:33:54;22.70;;;9.13;;
45356;SDS011;31092;51.924;21.448;2024-01-10T12:36:20;17.15;;;7.95;;
45356;SDS011;31092;51.924;21.448;2024-01-10T12:38:46;18.25;;;8.13;;
45356;SDS011;31092;51.924;21.448;2024-01-10T12:41:14;16.60;;;6.40;;
45356;SDS011;31092;51.924;21.448;2024-01-10T12:43:40;14.52;;;7.43;;
45356;SDS011;31092;51.924;21.448;2024-01-10T12:46:06;18.33;;;7.45;;
45356;SDS011;31092;51.924;21.448;2024-01-10T12:48:34;23.30;;;7.07;;
45356;SDS011;31092;51.924;21.448;2024-01-10T12:51:04;17.43;;;6.77;;
45356;SDS011;31092;51.924;21.448;2024-01-10T12:53:42;20.80;;;9.00;;
45356;SDS011;31092;51.924;21.448;2024-01-10T12:56:09;20.05;;;8.07;;
45356;SDS011;31092;51.924;21.448;2024-01-10T12:58:39;22.83;;;7.47;;
45356;SDS011;31092;51.924;21.448;2024-01-10T13:01:08;14.90;;;6.20;;
45356;SDS011;31092;51.924;21.448;2024-01-10T13:03:34;20.52;;;7.78;;
45356;SDS011;31092;51.924;21.448;2024-01-10T13:05:59;14.93;;;6.30;;
45356;SDS011;31092;51.924;21.448;2024-01-10T13:08:25;17.42;;;7.40;;
45356;SDS011;31092;51.924;21.448;2024-01-10T13:10:50;17.17;;;7.10;;
45356;SDS011;31092;51.924;21.448;2024-01-10T13:13:16;18.98;;;7.65;;
45356;SDS011;31092;51.924;21.448;2024-01-10T13:15:43;13.93;;;6.15;;
45356;SDS011;31092;51.924;21.448;2024-01-10T13:18:10;16.23;;;7.22;;
45356;SDS011;31092;51.924;21.448;2024-01-10T13:20:36;19.92;;;7.85;;
45356;SDS011;31092;51.924;21.448;2024-01-10T13:23:03;18.65;;;7.57;;
45356;SDS011;31092;51.924;21.448;2024-01-10T13:25:29;17.58;;;8.10;;
45356;SDS011;31092;51.924;21.448;2024-01-10T13:27:54;14.10;;;6.30;;
45356;SDS011;31092;51.924;21.448;2024-01-10T13:30:20;13.90;;;6.68;;
45356;SDS011;31092;51.924;21.448;2024-01-10T13:32:45;17.52;;;7.22;;
45356;SDS011;31092;51.924;21.448;2024-01-10T13:35:14;13.90;;;5.88;;
45356;SDS011;31092;51.924;21.448;2024-01-10T13:37:41;15.27;;;6.38;;
45356;SDS011;31092;51.924;21.448;2024-01-10T13:40:10;12.23;;;5.60;;
45356;SDS011;31092;51.924;21.448;2024-01-10T13:42:40;19.48;;;7.18;;
45356;SDS011;31092;51.924;21.448;2024-01-10T13:45:07;12.70;;;6.75;;
45356;SDS011;31092;51.924;21.448;2024-01-10T13:47:36;19.52;;;6.93;;
45356;SDS011;31092;51.924;21.448;2024-01-10T13:50:02;12.35;;;6.07;;
45356;SDS011;31092;51.924;21.448;2024-01-10T13:52:29;21.38;;;7.38;;
45356;SDS011;31092;51.924;21.448;2024-01-10T13:54:54;12.40;;;6.45;;
45356;SDS011;31092;51.924;21.448;2024-01-10T13:57:21;20.20;;;6.45;;
45356;SDS011;31092;51.924;21.448;2024-01-10T13:59:47;16.63;;;6.10;;
45356;SDS011;31092;51.924;21.448;2024-01-10T14:02:12;13.32;;;6.32;;
45356;SDS011;31092;51.924;21.448;2024-01-10T14:04:39;13.68;;;6.25;;
45356;SDS011;31092;51.924;21.448;2024-01-10T14:07:04;13.52;;;5.60;;
45356;SDS011;31092;51.924;21.448;2024-01-10T14:09:30;19.17;;;7.63;;
45356;SDS011;31092;51.924;21.448;2024-01-10T14:11:56;13.95;;;6.75;;
45356;SDS011;31092;51.924;21.448;2024-01-10T14:14:21;15.15;;;7.07;;
45356;SDS011;31092;51.924;21.448;2024-01-10T14:16:47;15.40;;;5.90;;
45356;SDS011;31092;51.924;21.448;2024-01-10T14:19:13;17.35;;;7.38;;
45356;SDS011;31092;51.924;21.448;2024-01-10T14:21:38;13.98;;;6.60;;
45356;SDS011;31092;51.924;21.448;2024-01-10T14:24:04;21.08;;;6.80;;
45356;SDS011;31092;51.924;21.448;2024-01-10T14:26:29;12.98;;;6.43;;
45356;SDS011;31092;51.924;21.448;2024-01-10T14:28:55;13.38;;;6.78;;
45356;SDS011;31092;51.924;21.448;2024-01-10T14:31:22;20.60;;;6.72;;
45356;SDS011;31092;51.924;21.448;2024-01-10T14:33:48;12.05;;;6.13;;
45356;SDS011;31092;51.924;21.448;2024-01-10T14:36:14;20.17;;;6.10;;